Time;durP1;ratioP1;P1;durP2;ratioP2;P2;SDS_P1;SDS_P2;PMS_P1;PMS_P2;Temp;Humidity;BMP_temperature;BMP_pressure;BME280_temperature;BME280_humidity;BME280_pressure;Samples;Min_cycle;Max_cycle;Signal;HPM_P1;HPM_P2
2022/10/19 00:03:00;;;;;;;19.40;9.38;;;;;12.10;97266.00;;;;8296030;28;20223;-71
2022/10/19 00:07:04;;;;;;;30.83;8.43;;;;;12.00;97273.00;;;;8295477;28;20572;-71
2022/10/19 00:11:37;;;;;;;36.58;9.18;;;;;11.90;97275.00;;;;8295964;28;20225;-71
2022/10/19 00:15:41;;;;;;;150.02;12.52;;;;;11.90;97282.00;;;;8296065;28;20235;-71
2022/10/19 00:19:44;;;;;;;53.53;10.90;;;;;11.80;97285.00;;;;8295228;28;20234;-71
2022/10/19 00:23:49;;;;;;;21.52;9.57;;;;;11.70;97292.00;;;;8296113;28;20231;-71
2022/10/19 00:28:23;;;;;;;25.33;9.93;;;;;11.70;97288.00;;;;8300822;28;20568;-71
2022/10/19 00:32:26;;;;;;;20.00;9.23;;;;;11.80;97289.00;;;;8295690;28;20575;-71
2022/10/19 00:36:32;;;;;;;14.55;7.95;;;;;12.00;97296.00;;;;8295431;28;20225;-71
2022/10/19 00:41:07;;;;;;;13.20;6.93;;;;;12.50;97294.00;;;;8295407;28;20285;-71
2022/10/19 00:45:15;;;;;;;8.25;5.57;;;;;12.80;97301.00;;;;8294794;28;20257;-71
2022/10/19 00:49:21;;;;;;;7.07;5.18;;;;;13.10;97299.00;;;;8295674;28;20236;-71
2022/10/19 00:53:52;;;;;;;11.57;6.32;;;;;13.20;97297.00;;;;8295013;28;20223;-70
2022/10/19 00:57:57;;;;;;;16.20;7.15;;;;;13.30;97288.00;;;;8294476;28;20259;-71
2022/10/19 01:02:03;;;;;;;13.82;7.07;;;;;13.30;97300.00;;;;8294524;28;20221;-71
2022/10/19 01:06:08;;;;;;;12.48;7.28;;;;;13.30;97298.00;;;;8293789;28;20610;-70
2022/10/19 01:10:12;;;;;;;15.63;7.60;;;;;13.30;97297.00;;;;8293571;28;20687;-70
2022/10/19 01:14:55;;;;;;;14.70;7.53;;;;;13.20;97300.00;;;;8305726;28;20217;-70
2022/10/19 01:19:06;;;;;;;12.35;6.93;;;;;13.10;97289.00;;;;8300842;28;20221;-70
2022/10/19 01:23:29;;;;;;;13.40;7.20;;;;;12.90;97292.00;;;;8300696;28;20221;-70
2022/10/19 01:27:49;;;;;;;30.20;7.80;;;;;12.70;97288.00;;;;8301170;28;20236;-70
2022/10/19 01:32:00;;;;;;;17.38;7.22;;;;;12.60;97281.00;;;;8300523;28;20228;-70
2022/10/19 01:36:13;;;;;;;17.65;8.20;;;;;12.60;97283.00;;;;8300819;28;20223;-70
2022/10/19 01:40:24;;;;;;;17.20;7.95;;;;;12.60;97283.00;;;;8300203;28;20212;-70
2022/10/19 01:44:35;;;;;;;102.20;10.50;;;;;12.60;97280.00;;;;8300620;28;20551;-70
2022/10/19 01:48:44;;;;;;;109.65;10.18;;;;;12.60;97272.00;;;;8299488;28;20226;-70
2022/10/19 01:53:17;;;;;;;104.85;11.18;;;;;12.70;97272.00;;;;8300719;28;20279;-70
2022/10/19 01:57:25;;;;;;;45.38;11.48;;;;;12.80;97253.00;;;;8299474;28;20220;-70
2022/10/19 02:01:32;;;;;;;110.65;14.85;;;;;12.90;97259.00;;;;8300511;28;20224;-70
2022/10/19 02:06:06;;;;;;;47.30;10.77;;;;;13.00;97260.00;;;;8299378;28;20665;-70
2022/10/19 02:10:09;;;;;;;61.72;11.13;;;;;13.00;97253.00;;;;8299603;28;20220;-69
2022/10/19 02:14:16;;;;;;;68.10;12.40;;;;;13.00;97259.00;;;;8299244;28;20237;-69
2022/10/19 02:18:51;;;;;;;121.78;12.55;;;;;13.00;97254.00;;;;8300570;28;20252;-69
2022/10/19 02:22:56;;;;;;;533.63;26.48;;;;;13.10;97238.00;;;;8298936;28;20233;-70
2022/10/19 02:27:00;;;;;;;290.23;18.55;;;;;13.10;97246.00;;;;8298534;28;20218;-69
2022/10/19 02:31:04;;;;;;;434.00;24.50;;;;;13.20;97234.00;;;;8299847;28;20228;-70
2022/10/19 02:35:41;;;;;;;613.70;28.42;;;;;13.20;97241.00;;;;8293145;28;20224;-70
2022/10/19 02:39:45;;;;;;;523.58;25.40;;;;;13.10;97237.00;;;;8305527;28;20232;-69
2022/10/19 02:43:51;;;;;;;344.77;19.70;;;;;13.10;97234.00;;;;8298787;28;20225;-69
2022/10/19 02:47:59;;;;;;;121.78;12.95;;;;;13.10;97228.00;;;;8297998;28;20668;-69
2022/10/19 02:52:05;;;;;;;344.52;19.80;;;;;13.00;97223.00;;;;8297944;28;20224;-70
2022/10/19 02:56:40;;;;;;;177.85;16.70;;;;;13.00;97217.00;;;;8298517;28;20397;-70
2022/10/19 03:00:43;;;;;;;259.30;18.20;;;;;13.00;97223.00;;;;8297788;28;20221;-70
2022/10/19 03:05:20;;;;;;;556.35;23.58;;;;;13.10;97215.00;;;;8297118;28;20228;-70
2022/10/19 03:09:56;;;;;;;150.48;14.80;;;;;13.20;97221.00;;;;8298299;28;20222;-70
2022/10/19 03:14:34;;;;;;;189.43;15.88;;;;;13.20;97212.00;;;;8297640;28;20217;-70
2022/10/19 03:18:38;;;;;;;240.95;17.42;;;;;13.20;97219.00;;;;8297481;28;20273;-70
2022/10/19 03:22:41;;;;;;;300.30;14.35;;;;;13.30;97219.00;;;;8296729;28;20240;-71
2022/10/19 03:27:15;;;;;;;139.30;12.38;;;;;13.20;97209.00;;;;8297536;28;20228;-70
2022/10/19 03:31:52;;;;;;;201.50;15.80;;;;;13.10;97212.00;;;;8296721;28;20225;-70
2022/10/19 03:36:14;;;;;;;166.68;15.05;;;;;13.10;97209.00;;;;8296606;28;20253;-70
2022/10/19 03:40:30;;;;;;;321.10;25.30;;;;;13.10;97209.00;;;;8296897;28;20218;-70
2022/10/19 03:45:07;;;;;;;276.08;19.27;;;;;13.20;97202.00;;;;8301903;28;20244;-70
2022/10/19 03:49:10;;;;;;;302.60;17.15;;;;;13.20;97206.00;;;;8295872;28;20375;-71
2022/10/19 03:53:14;;;;;;;285.98;19.00;;;;;13.20;97214.00;;;;8296261;28;20221;-71
2022/10/19 03:57:48;;;;;;;177.73;14.73;;;;;13.10;97212.00;;;;8295598;28;20275;-70
2022/10/19 04:02:25;;;;;;;304.13;17.60;;;;;13.00;97220.00;;;;8296081;28;20583;-72
2022/10/19 04:06:30;;;;;;;410.08;18.77;;;;;12.90;97218.00;;;;8294866;28;20252;-73
2022/10/19 04:10:34;;;;;;;149.38;12.13;;;;;12.80;97222.00;;;;8296241;28;20276;-73
2022/10/19 04:14:38;;;;;;;450.75;25.80;;;;;12.80;97211.00;;;;8295883;28;20289;-74
2022/10/19 04:19:15;;;;;;;213.70;13.27;;;;;12.80;97215.00;;;;8295993;28;20599;-73
2022/10/19 04:23:18;;;;;;;322.63;14.70;;;;;12.70;97211.00;;;;8295064;28;20218;-73
2022/10/19 04:27:56;;;;;;;258.60;13.02;;;;;12.60;97218.00;;;;8295794;28;20224;-72
2022/10/19 04:32:30;;;;;;;248.23;12.88;;;;;12.50;97218.00;;;;8291797;28;20718;-73
2022/10/19 04:37:06;;;;;;;210.82;10.80;;;;;12.50;97213.00;;;;8293503;28;20291;-72
2022/10/19 04:41:44;;;;;;;196.55;10.55;;;;;12.40;97209.00;;;;8291823;28;20251;-72
2022/10/19 04:45:48;;;;;;;198.98;10.65;;;;;12.40;97208.00;;;;8327121;28;20270;-73
2022/10/19 04:49:51;;;;;;;90.20;7.20;;;;;12.40;97213.00;;;;8327705;28;20302;-73
2022/10/19 04:53:57;;;;;;;156.63;9.20;;;;;12.30;97207.00;;;;8326808;28;20251;-72
2022/10/19 04:58:01;;;;;;;142.35;9.60;;;;;12.20;97205.00;;;;8328284;28;20307;-72
2022/10/19 05:02:06;;;;;;;183.02;12.25;;;;;12.10;97199.00;;;;8327339;28;20282;-72
2022/10/19 05:06:40;;;;;;;275.00;13.63;;;;;12.00;97198.00;;;;8327875;28;20221;-73
2022/10/19 05:11:17;;;;;;;80.22;8.32;;;;;11.90;97195.00;;;;8325849;28;20262;-73
2022/10/19 05:15:57;;;;;;;67.70;7.50;;;;;11.80;97193.00;;;;8327772;28;20216;-73
2022/10/19 05:20:02;;;;;;;104.20;8.57;;;;;11.70;97185.00;;;;8326921;28;20654;-72
2022/10/19 05:24:38;;;;;;;131.20;9.38;;;;;11.60;97193.00;;;;8327358;28;20228;-70
2022/10/19 05:28:41;;;;;;;65.35;7.30;;;;;11.60;97185.00;;;;8326771;28;20563;-71
2022/10/19 05:32:45;;;;;;;285.88;13.43;;;;;11.50;97183.00;;;;8327299;28;20217;-71
2022/10/19 05:37:22;;;;;;;129.90;8.45;;;;;11.40;97178.00;;;;8327022;28;20294;-71
2022/10/19 05:42:00;;;;;;;123.25;8.60;;;;;11.30;97185.00;;;;8327444;28;20232;-71
2022/10/19 05:46:04;;;;;;;72.05;6.82;;;;;11.30;97183.00;;;;8326864;28;20267;-70
2022/10/19 05:50:08;;;;;;;59.42;6.50;;;;;11.30;97180.00;;;;8327719;28;20236;-70
2022/10/19 05:54:45;;;;;;;61.65;6.63;;;;;11.30;97176.00;;;;8326606;28;20223;-70
2022/10/19 05:59:23;;;;;;;53.33;6.45;;;;;11.40;97183.00;;;;8299980;28;20217;-71
2022/10/19 06:03:27;;;;;;;110.95;7.80;;;;;11.40;97186.00;;;;8300518;28;20223;-71
2022/10/19 06:07:30;;;;;;;89.65;7.82;;;;;11.40;97198.00;;;;8300673;28;20733;-72
2022/10/19 06:12:07;;;;;;;60.60;6.22;;;;;11.50;97200.00;;;;8299740;28;20347;-71
2022/10/19 06:16:45;;;;;;;104.97;8.02;;;;;11.60;97201.00;;;;8298697;28;20718;-72
2022/10/19 06:20:48;;;;;;;145.18;10.57;;;;;11.60;97211.00;;;;8299288;28;20272;-72
2022/10/19 06:24:51;;;;;;;148.98;10.13;;;;;11.70;97207.00;;;;8299582;28;20237;-72
2022/10/19 06:29:29;;;;;;;131.35;9.05;;;;;11.80;97208.00;;;;8299276;28;20214;-72
2022/10/19 06:34:07;;;;;;;102.68;8.85;;;;;11.90;97207.00;;;;8299232;28;20214;-72
2022/10/19 06:38:41;;;;;;;120.65;8.77;;;;;12.00;97207.00;;;;8298510;28;20705;-71
2022/10/19 06:42:44;;;;;;;108.07;9.27;;;;;12.20;97213.00;;;;8298673;28;20224;-71
2022/10/19 06:47:16;;;;;;;197.32;11.98;;;;;12.30;97216.00;;;;8298799;28;20224;-72
2022/10/19 06:51:55;;;;;;;106.55;8.50;;;;;12.50;97227.00;;;;8298339;28;20738;-74
2022/10/19 06:55:58;;;;;;;153.88;10.15;;;;;12.70;97232.00;;;;8296978;28;20283;-74
2022/10/19 07:00:32;;;;;;;68.90;7.65;;;;;12.90;97236.00;;;;8298473;28;20240;-73
2022/10/19 07:05:09;;;;;;;104.22;8.88;;;;;13.00;97241.00;;;;8295990;28;20229;-74
2022/10/19 07:09:45;;;;;;;154.85;11.05;;;;;13.30;97253.00;;;;8296680;28;20259;-73
2022/10/19 07:14:19;;;;;;;201.73;12.88;;;;;13.40;97252.00;;;;8297033;28;20541;-74
2022/10/19 07:18:22;;;;;;;86.03;9.43;;;;;13.40;97255.00;;;;8297076;28;20237;-74
2022/10/19 07:22:59;;;;;;;133.57;10.73;;;;;13.60;97244.00;;;;8297289;28;20232;-74
2022/10/19 07:27:39;;;;;;;195.70;13.55;;;;;13.90;97248.00;;;;8327732;28;20236;-74
2022/10/19 07:31:42;;;;;;;100.38;12.43;;;;;14.20;97254.00;;;;8297322;28;20253;-74
2022/10/19 07:36:16;;;;;;;128.05;13.63;;;;;14.30;97248.00;;;;8297330;28;20229;-74
2022/10/19 07:40:59;;;;;;;117.75;13.30;;;;;14.40;97245.00;;;;8296773;28;20229;-74
2022/10/19 07:45:30;;;;;;;179.68;16.20;;;;;14.60;97242.00;;;;8327311;28;20508;-74
2022/10/19 07:49:34;;;;;;;120.68;14.93;;;;;14.50;97242.00;;;;8327103;28;20274;-74
2022/10/19 07:54:11;;;;;;;116.85;16.40;;;;;14.50;97245.00;;;;8329021;28;20221;-74
2022/10/19 07:58:14;;;;;;;72.30;15.77;;;;;14.40;97238.00;;;;8329233;28;20214;-74
2022/10/19 08:02:51;;;;;;;54.60;13.18;;;;;14.60;97248.00;;;;8329073;28;20221;-74
2022/10/19 08:07:32;;;;;;;56.78;14.80;;;;;14.80;97256.00;;;;8328666;28;20247;-74
2022/10/19 08:12:03;;;;;;;48.00;12.07;;;;;14.60;97257.00;;;;8326475;28;20227;-74
2022/10/19 08:16:24;;;;;;;52.15;13.00;;;;;14.50;97263.00;;;;8328942;28;20255;-73
2022/10/19 08:20:27;;;;;;;54.55;12.07;;;;;14.50;97257.00;;;;8298806;28;20226;-74
2022/10/19 08:25:04;;;;;;;106.43;14.07;;;;;14.40;97265.00;;;;8295655;28;20244;-74
2022/10/19 08:29:12;;;;;;;51.20;11.55;;;;;14.60;97265.00;;;;8295046;28;20245;-74
2022/10/19 08:33:42;;;;;;;51.78;11.77;;;;;14.60;97265.00;;;;8295522;28;20305;-74
2022/10/19 08:37:45;;;;;;;47.78;11.38;;;;;14.60;97260.00;;;;8294741;28;20228;-74
2022/10/19 08:41:57;;;;;;;40.45;12.30;;;;;14.60;97265.00;;;;8296102;28;20259;-73
2022/10/19 08:46:32;;;;;;;51.20;12.27;;;;;14.70;97274.00;;;;8294596;28;20218;-74
2022/10/19 08:50:39;;;;;;;42.40;11.13;;;;;14.70;97262.00;;;;8295032;28;20281;-74
2022/10/19 08:54:49;;;;;;;52.10;10.80;;;;;14.80;97266.00;;;;8295086;28;20243;-74
2022/10/19 08:59:23;;;;;;;47.08;13.57;;;;;14.90;97261.00;;;;8294540;28;20529;-74
2022/10/19 09:03:59;;;;;;;48.92;15.10;;;;;15.00;97271.00;;;;8294471;28;20229;-75
2022/10/19 09:08:02;;;;;;;49.42;15.25;;;;;14.90;97275.00;;;;8322482;28;20225;-74
2022/10/19 09:12:41;;;;;;;57.05;15.18;;;;;14.50;97279.00;;;;8325974;28;20289;-73
2022/10/19 09:16:45;;;;;;;43.78;14.05;;;;;14.30;97274.00;;;;8325765;28;20217;-73
2022/10/19 09:20:51;;;;;;;52.05;16.35;;;;;14.30;97276.00;;;;8326784;28;20224;-73
2022/10/19 09:25:25;;;;;;;53.15;16.40;;;;;14.40;97273.00;;;;8327207;28;20225;-74
2022/10/19 09:30:03;;;;;;;104.70;15.50;;;;;14.40;97276.00;;;;8326627;28;20224;-74
2022/10/19 09:34:40;;;;;;;86.78;15.90;;;;;14.40;97274.00;;;;8330442;28;20635;-74
2022/10/19 09:39:16;;;;;;;38.60;15.57;;;;;14.60;97277.00;;;;8333365;28;20224;-74
2022/10/19 09:43:20;;;;;;;41.42;15.27;;;;;14.60;97276.00;;;;8333442;28;20246;-73
2022/10/19 09:47:32;;;;;;;45.80;18.15;;;;;14.80;97287.00;;;;8333042;28;20248;-73
2022/10/19 09:51:41;;;;;;;41.55;15.35;;;;;14.80;97286.00;;;;8304110;28;20233;-73
2022/10/19 09:56:19;;;;;;;41.63;17.30;;;;;14.90;97295.00;;;;8300008;28;20222;-74
2022/10/19 10:00:50;;;;;;;32.63;15.13;;;;;14.90;97293.00;;;;8300487;28;20222;-74
2022/10/19 10:04:56;;;;;;;31.67;13.90;;;;;14.90;97291.00;;;;8300285;28;20226;-74
2022/10/19 10:08:59;;;;;;;31.02;15.57;;;;;15.00;97296.00;;;;8299632;28;20615;-74
2022/10/19 10:13:39;;;;;;;28.48;13.73;;;;;15.10;97305.00;;;;8299977;28;20229;-74
2022/10/19 10:17:47;;;;;;;29.50;14.90;;;;;15.00;97306.00;;;;8300140;28;20238;-74
2022/10/19 10:22:24;;;;;;;27.85;13.85;;;;;14.90;97302.00;;;;8300876;28;20230;-74
2022/10/19 10:26:59;;;;;;;25.80;13.57;;;;;14.90;97306.00;;;;8291898;28;20237;-74
2022/10/19 10:31:35;;;;;;;27.80;14.43;;;;;14.90;97298.00;;;;8295476;28;20221;-73
2022/10/19 10:36:09;;;;;;;31.85;15.05;;;;;14.80;97300.00;;;;8327298;28;20221;-73
2022/10/19 10:40:51;;;;;;;36.60;15.95;;;;;14.80;97290.00;;;;8300668;28;20272;-73
2022/10/19 10:44:56;;;;;;;33.72;15.98;;;;;14.90;97284.00;;;;8297063;28;20228;-74
2022/10/19 10:49:03;;;;;;;29.35;16.05;;;;;14.90;97287.00;;;;8298789;28;20549;-75
2022/10/19 10:53:35;;;;;;;35.17;16.77;;;;;14.90;97288.00;;;;8298421;28;20239;-74
2022/10/19 10:58:15;;;;;;;32.80;17.08;;;;;15.00;97282.00;;;;8297764;28;20220;-71
2022/10/19 11:02:48;;;;;;;30.05;15.98;;;;;15.30;97273.00;;;;8329458;28;20267;-71
2022/10/19 11:07:24;;;;;;;29.00;15.63;;;;;15.50;97266.00;;;;8299450;28;20305;-71
2022/10/19 11:11:58;;;;;;;29.40;15.68;;;;;15.60;97262.00;;;;8296670;28;20229;-71
2022/10/19 11:16:38;;;;;;;28.80;15.15;;;;;15.60;97258.00;;;;8297802;28;20230;-72
2022/10/19 11:21:18;;;;;;;27.00;13.95;;;;;15.80;97243.00;;;;8328467;28;20301;-71
2022/10/19 11:26:02;;;;;;;27.67;14.65;;;;;15.90;97234.00;;;;8328928;28;20235;-71
2022/10/19 11:30:27;;;;;;;22.77;12.35;;;;;16.30;97229.00;;;;8300346;28;20671;-72
2022/10/19 11:35:13;;;;;;;19.13;10.88;;;;;16.50;97227.00;;;;8297043;28;20291;-72
2022/10/19 11:39:47;;;;;;;15.25;9.05;;;;;16.60;97220.00;;;;8328249;28;20267;-72
2022/10/19 11:44:20;;;;;;;17.20;10.07;;;;;16.80;97210.00;;;;8296419;28;20230;-72
2022/10/19 11:48:58;;;;;;;16.30;9.73;;;;;16.90;97189.00;;;;8297601;28;20727;-72
2022/10/19 11:53:26;;;;;;;19.33;9.57;;;;;17.40;97196.00;;;;8295760;28;20564;-72
2022/10/19 11:57:59;;;;;;;20.30;8.88;;;;;17.70;97192.00;;;;8296229;28;20230;-73
2022/10/19 12:02:50;;;;;;;18.05;10.38;;;;;17.60;97194.00;;;;8325058;28;20226;-72
2022/10/19 12:07:39;;;;;;;18.60;10.30;;;;;17.40;97191.00;;;;8297206;28;20217;-71
2022/10/19 12:17:16;;;;;;;14.38;9.75;;;;;17.40;97178.00;;;;8294642;28;20292;-71
2022/10/19 12:21:54;;;;;;;18.52;8.75;;;;;17.10;97168.00;;;;8295992;28;20222;-72
2022/10/19 12:26:01;;;;;;;17.38;8.70;;;;;16.90;97165.00;;;;8295918;28;20218;-72
2022/10/19 12:30:08;;;;;;;13.02;8.43;;;;;17.00;97157.00;;;;8293914;28;20224;-72
2022/10/19 12:34:45;;;;;;;13.00;8.15;;;;;17.00;97151.00;;;;8295868;28;20313;-72
2022/10/19 12:39:24;;;;;;;10.57;7.35;;;;;17.20;97144.00;;;;8293208;28;20221;-71
2022/10/19 12:43:55;;;;;;;10.75;7.35;;;;;17.20;97144.00;;;;8294474;28;20261;-72
2022/10/19 12:48:31;;;;;;;14.60;7.38;;;;;17.10;97131.00;;;;8294039;28;20218;-70
2022/10/19 12:53:22;;;;;;;8.05;6.15;;;;;16.90;97132.00;;;;8292837;28;20233;-70
2022/10/19 12:57:30;;;;;;;9.23;6.60;;;;;16.90;97126.00;;;;8294088;28;20587;-70
2022/10/19 13:01:43;;;;;;;12.27;6.95;;;;;16.90;97125.00;;;;8292789;28;20657;-71
2022/10/19 13:05:56;;;;;;;15.63;8.30;;;;;17.00;97129.00;;;;8293282;28;20222;-70
2022/10/19 13:10:01;;;;;;;14.88;7.68;;;;;17.00;97125.00;;;;8298417;28;20651;-70
2022/10/19 13:14:27;;;;;;;12.02;7.93;;;;;17.20;97123.00;;;;8301209;28;20218;-71
2022/10/19 13:19:06;;;;;;;12.30;7.90;;;;;17.20;97122.00;;;;8299753;28;20651;-70
2022/10/19 13:23:40;;;;;;;15.02;8.60;;;;;17.10;97124.00;;;;8302490;28;20224;-70
2022/10/19 13:27:45;;;;;;;14.43;7.63;;;;;17.00;97110.00;;;;8300414;28;20214;-71
2022/10/19 13:32:25;;;;;;;10.82;6.28;;;;;17.00;97110.00;;;;8300851;28;20230;-73
2022/10/19 13:37:03;;;;;;;12.55;7.60;;;;;16.90;97112.00;;;;8299777;28;20654;-73
2022/10/19 13:41:44;;;;;;;10.63;6.05;;;;;16.80;97115.00;;;;8299445;28;20222;-73
2022/10/19 13:46:23;;;;;;;13.10;6.70;;;;;16.80;97101.00;;;;8300701;28;20214;-73
2022/10/19 13:55:51;;;;;;;10.88;6.55;;;;;16.80;97105.00;;;;8298825;28;20226;-79
2022/10/19 14:00:12;;;;;;;9.85;6.15;;;;;16.80;97101.00;;;;8299852;28;20226;-73
2022/10/19 14:04:41;;;;;;;13.52;6.65;;;;;16.80;97097.00;;;;8299702;28;20218;-75
2022/10/19 14:09:18;;;;;;;6.50;5.20;;;;;16.80;97090.00;;;;8298371;28;20221;-76
2022/10/19 14:14:06;;;;;;;13.77;5.90;;;;;16.80;97086.00;;;;8299666;28;20429;-76
2022/10/19 14:18:24;;;;;;;12.60;6.70;;;;;16.90;97082.00;;;;8298169;28;20250;-75
2022/10/19 14:22:29;;;;;;;8.27;6.30;;;;;16.90;97076.00;;;;8299066;28;20222;-76
2022/10/19 14:27:04;;;;;;;19.85;10.63;;;;;16.90;97073.00;;;;8299012;28;20276;-75
2022/10/19 14:31:43;;;;;;;11.07;7.10;;;;;16.80;97075.00;;;;8298514;28;20597;-75
2022/10/19 14:36:18;;;;;;;10.88;6.78;;;;;16.70;97077.00;;;;8297973;28;20541;-75
2022/10/19 14:40:52;;;;;;;11.15;6.43;;;;;16.60;97064.00;;;;8297816;28;20734;-76
2022/10/19 14:45:01;;;;;;;8.63;6.15;;;;;16.60;97056.00;;;;8297553;28;20233;-78
2022/10/19 14:49:33;;;;;;;9.85;6.18;;;;;16.60;97053.00;;;;8297378;28;20218;-74
2022/10/19 14:58:39;;;;;;;13.98;6.10;;;;;16.60;97051.00;;;;8297274;28;20226;-73
2022/10/19 15:02:46;;;;;;;11.32;6.50;;;;;16.60;97052.00;;;;8296974;28;20225;-75
2022/10/19 15:07:23;;;;;;;9.40;6.13;;;;;16.50;97051.00;;;;8297626;28;20226;-75
2022/10/19 15:11:30;;;;;;;10.55;6.78;;;;;16.40;97047.00;;;;8297808;28;20228;-75
2022/10/19 15:16:04;;;;;;;10.55;6.88;;;;;16.30;97045.00;;;;8296170;28;20260;-75
2022/10/19 15:20:24;;;;;;;10.70;6.45;;;;;16.20;97042.00;;;;8297069;28;20622;-73
2022/10/19 15:24:58;;;;;;;12.05;6.65;;;;;16.00;97042.00;;;;8298343;28;20225;-73
2022/10/19 15:29:09;;;;;;;14.00;7.03;;;;;15.90;97038.00;;;;8297023;28;20225;-73
2022/10/19 15:33:37;;;;;;;11.20;7.30;;;;;15.80;97041.00;;;;8296285;28;20736;-75
2022/10/19 15:38:18;;;;;;;10.43;6.75;;;;;15.70;97043.00;;;;8297417;28;20220;-75
2022/10/19 15:42:54;;;;;;;9.13;6.65;;;;;15.60;97038.00;;;;8292455;28;20230;-76
2022/10/19 15:47:30;;;;;;;10.50;6.75;;;;;15.50;97039.00;;;;8296213;28;20213;-75
2022/10/19 15:51:42;;;;;;;14.27;7.03;;;;;15.40;97036.00;;;;8297068;28;20217;-77
2022/10/19 15:56:10;;;;;;;12.50;7.25;;;;;15.20;97043.00;;;;8296075;28;20218;-76
2022/10/19 16:00:45;;;;;;;14.60;6.88;;;;;15.00;97028.00;;;;8295796;28;20621;-76
2022/10/19 16:05:24;;;;;;;13.57;7.72;;;;;14.80;97025.00;;;;8296466;28;20225;-76
2022/10/19 16:09:58;;;;;;;7.80;6.20;;;;;14.60;97024.00;;;;8295374;28;20230;-76
2022/10/19 16:14:34;;;;;;;8.40;6.00;;;;;14.50;97015.00;;;;8292969;28;20234;-76
2022/10/19 16:19:12;;;;;;;10.68;6.43;;;;;14.30;97022.00;;;;8295423;28;20297;-76
2022/10/19 16:23:51;;;;;;;9.63;6.40;;;;;14.00;97020.00;;;;8298846;28;20233;-77
2022/10/19 16:28:28;;;;;;;11.95;6.60;;;;;13.80;97008.00;;;;8294358;28;20594;-77
2022/10/19 16:33:05;;;;;;;14.90;6.53;;;;;13.60;97000.00;;;;8294850;28;20240;-76
2022/10/19 16:37:42;;;;;;;13.95;7.82;;;;;13.30;97017.00;;;;8295212;28;20243;-76
2022/10/19 16:42:21;;;;;;;16.33;9.55;;;;;13.00;97010.00;;;;8297881;28;20217;-77
2022/10/19 16:46:56;;;;;;;12.27;7.95;;;;;12.80;97012.00;;;;8295609;28;20580;-77
2022/10/19 16:51:19;;;;;;;18.23;10.30;;;;;12.50;97007.00;;;;8295451;28;20607;-77
2022/10/19 16:55:41;;;;;;;16.85;9.13;;;;;12.30;97009.00;;;;8293988;28;20233;-77
2022/10/19 17:00:19;;;;;;;15.25;9.00;;;;;12.20;97006.00;;;;8293885;28;20224;-78
2022/10/19 17:04:53;;;;;;;19.35;9.38;;;;;12.00;97004.00;;;;8295939;28;20579;-78
2022/10/19 17:09:30;;;;;;;12.27;7.88;;;;;11.80;97009.00;;;;8294036;28;20682;-78
2022/10/19 17:13:55;;;;;;;16.23;8.40;;;;;11.70;97010.00;;;;8294969;28;20222;-78
2022/10/19 17:17:59;;;;;;;185.60;83.63;;;;;11.50;97024.00;;;;8295265;28;20323;-78
2022/10/19 17:22:32;;;;;;;26.33;14.35;;;;;11.40;97019.00;;;;8293762;28;20241;-78
2022/10/19 17:27:10;;;;;;;17.30;8.95;;;;;11.20;97017.00;;;;8292266;28;20229;-77
2022/10/19 17:31:47;;;;;;;15.27;8.30;;;;;11.00;97026.00;;;;8326423;28;20215;-80
2022/10/19 17:36:27;;;;;;;17.23;9.18;;;;;10.80;97019.00;;;;8325805;28;20547;-78
2022/10/19 17:41:01;;;;;;;15.30;8.35;;;;;10.60;97026.00;;;;8327241;28;20228;-77
2022/10/19 17:45:38;;;;;;;16.25;9.00;;;;;10.50;97024.00;;;;8293769;28;20220;-77
2022/10/19 17:50:16;;;;;;;20.98;10.95;;;;;10.40;97014.00;;;;8293163;28;20230;-77
2022/10/19 17:54:54;;;;;;;42.38;15.73;;;;;10.30;97019.00;;;;8295531;28;20234;-77
2022/10/19 17:59:30;;;;;;;26.00;11.88;;;;;10.30;97017.00;;;;8332861;28;20210;-78
2022/10/19 18:04:06;;;;;;;21.30;10.48;;;;;10.30;97008.00;;;;8329883;28;20223;-77
2022/10/19 18:08:41;;;;;;;32.80;12.00;;;;;10.10;97005.00;;;;8331978;28;20275;-77
2022/10/19 18:13:16;;;;;;;24.40;10.60;;;;;10.10;96993.00;;;;8303695;28;20568;-78
2022/10/19 18:17:50;;;;;;;20.98;11.20;;;;;10.30;97002.00;;;;8327820;28;20221;-79
2022/10/19 18:22:27;;;;;;;18.10;10.70;;;;;10.50;96996.00;;;;8301379;28;20226;-78
2022/10/19 18:27:04;;;;;;;22.60;12.15;;;;;10.70;96991.00;;;;8330625;28;20618;-79
2022/10/19 18:31:42;;;;;;;26.60;11.77;;;;;10.70;96980.00;;;;8299675;28;20529;-78
2022/10/19 18:36:19;;;;;;;23.77;11.05;;;;;10.80;96969.00;;;;8298635;28;20690;-79
2022/10/19 18:40:56;;;;;;;24.88;10.93;;;;;11.00;96974.00;;;;8329174;28;20336;-79
2022/10/19 18:45:33;;;;;;;22.38;12.10;;;;;11.10;96974.00;;;;8298595;28;20223;-77
2022/10/19 18:50:11;;;;;;;21.83;11.20;;;;;11.10;96974.00;;;;8298276;28;20651;-76
2022/10/19 18:54:15;;;;;;;22.23;11.48;;;;;11.20;96975.00;;;;8297315;28;20246;-79
2022/10/19 18:58:51;;;;;;;20.52;11.38;;;;;11.20;96977.00;;;;8296141;28;20213;-76
2022/10/19 19:03:28;;;;;;;20.67;10.82;;;;;11.20;96981.00;;;;8327549;28;20226;-75
2022/10/19 19:08:06;;;;;;;22.52;11.95;;;;;11.20;96968.00;;;;8298414;28;20695;-77
2022/10/19 19:12:43;;;;;;;20.75;12.07;;;;;11.20;96964.00;;;;8297150;28;20248;-77
2022/10/19 19:17:20;;;;;;;22.67;10.88;;;;;11.20;96961.00;;;;8296570;28;20243;-78
2022/10/19 19:22:01;;;;;;;22.65;11.32;;;;;11.20;96961.00;;;;8328178;28;20228;-75
2022/10/19 19:26:37;;;;;;;20.95;11.27;;;;;11.10;96966.00;;;;8297983;28;20226;-76
2022/10/19 19:31:14;;;;;;;21.35;11.10;;;;;11.10;96971.00;;;;8296640;28;20214;-76
2022/10/19 19:35:17;;;;;;;22.38;11.40;;;;;11.00;96969.00;;;;8297258;28;20276;-78
2022/10/19 19:39:54;;;;;;;26.08;11.38;;;;;10.90;96974.00;;;;8296025;28;20216;-78
2022/10/19 19:44:33;;;;;;;22.58;11.88;;;;;10.80;96975.00;;;;8296431;28;20237;-76
2022/10/19 19:49:07;;;;;;;19.20;11.75;;;;;10.80;96969.00;;;;8327815;28;20563;-78
2022/10/19 19:53:44;;;;;;;22.48;12.50;;;;;10.70;96969.00;;;;8295187;28;20291;-78
2022/10/19 19:57:48;;;;;;;24.27;12.70;;;;;10.60;96971.00;;;;8296032;28;20229;-78
2022/10/19 20:02:24;;;;;;;26.90;13.00;;;;;10.60;96963.00;;;;8295687;28;20309;-78
2022/10/19 20:06:58;;;;;;;16.23;10.73;;;;;10.50;96969.00;;;;8325951;28;20222;-78
2022/10/19 20:11:35;;;;;;;23.95;11.75;;;;;10.50;96974.00;;;;8297311;28;20683;-78
2022/10/19 20:16:12;;;;;;;22.92;12.65;;;;;10.40;96984.00;;;;8295255;28;20218;-78
2022/10/19 20:20:48;;;;;;;19.45;11.63;;;;;10.40;96967.00;;;;8296106;28;20211;-78
2022/10/19 20:25:25;;;;;;;23.27;12.20;;;;;10.30;96977.00;;;;8293967;28;20222;-77
2022/10/19 20:30:02;;;;;;;24.35;11.90;;;;;10.20;96966.00;;;;8292219;28;20226;-77
2022/10/19 20:34:39;;;;;;;24.48;12.80;;;;;10.20;96968.00;;;;8296000;28;20690;-78
2022/10/19 20:38:47;;;;;;;18.90;10.50;;;;;10.20;96962.00;;;;8296030;28;20301;-79
2022/10/19 20:43:18;;;;;;;22.23;11.07;;;;;10.10;96963.00;;;;8293947;28;20563;-79
2022/10/19 20:47:21;;;;;;;21.02;12.00;;;;;10.10;96960.00;;;;8295898;28;20234;-78
2022/10/19 20:51:58;;;;;;;23.35;11.98;;;;;10.10;96947.00;;;;8293632;28;20221;-78
2022/10/19 20:56:22;;;;;;;23.13;12.80;;;;;10.00;96948.00;;;;8323630;28;20251;-78
2022/10/19 21:00:26;;;;;;;21.13;12.40;;;;;10.00;96955.00;;;;8324879;28;20252;-78
2022/10/19 21:04:29;;;;;;;22.27;12.57;;;;;10.00;96955.00;;;;8325717;28;20267;-78
2022/10/19 21:09:05;;;;;;;21.27;11.05;;;;;9.90;96947.00;;;;8326328;28;20226;-78
2022/10/19 21:13:10;;;;;;;16.83;11.00;;;;;9.90;96933.00;;;;8296120;28;20223;-78
2022/10/19 21:17:13;;;;;;;21.98;12.65;;;;;9.90;96930.00;;;;8294807;28;20237;-78
2022/10/19 21:21:50;;;;;;;23.35;11.90;;;;;9.90;96934.00;;;;8290692;28;20222;-78
2022/10/19 21:25:54;;;;;;;24.85;12.25;;;;;9.90;96949.00;;;;8293702;28;20214;-78
2022/10/19 21:29:58;;;;;;;25.88;13.48;;;;;9.80;96946.00;;;;8304367;28;20229;-78
2022/10/19 21:34:04;;;;;;;28.17;12.50;;;;;9.80;96942.00;;;;8300857;28;20221;-78
2022/10/19 21:38:07;;;;;;;18.65;11.57;;;;;9.70;96950.00;;;;8301342;28;20760;-77
2022/10/19 21:42:44;;;;;;;25.10;11.52;;;;;9.70;96949.00;;;;8300392;28;20636;-77
2022/10/19 21:46:49;;;;;;;16.73;11.15;;;;;9.60;96955.00;;;;8301238;28;20556;-77
2022/10/19 21:51:26;;;;;;;19.10;12.13;;;;;9.60;96951.00;;;;8300239;28;20226;-77